< < Back
Terminal Aerodrome Forecast


Current Version              Previous Versions:   1  2  3  4  5  6  7  8  9  

Terminal Aerodrome Forecast

267
FTUS44 KBMX 241727
TAFANB
TAF
KANB 241727Z 2418/2518 06005KT P6SM BKN150
     FM250600 08004KT P6SM BKN050 OVC100
     FM251200 12005KT P6SM VCSH OVC018=

Latest METAR

974
SAUS70 KWBC 251200 RRH
MTRANB
METAR KANB 251153Z AUTO 06005KT 10SM FEW006 BKN031 16/14 A2982 RMK AO2
RAE53 SLP093 P0002 60129 70129 T01560144 10189 20156
55012


USA.gov is the U.S. government's official web portal to all federal, state and local government web resources and services.